sensor_id;sensor_type;location;lat;lon;timestamp;temperature;humidity
15107;DHT22;7654;45.308;-75.096;2022-07-06T00:01:52;17.70;99.90
15107;DHT22;7654;45.308;-75.096;2022-07-06T00:04:22;17.70;99.90
15107;DHT22;7654;45.308;-75.096;2022-07-06T00:06:53;17.70;99.90
15107;DHT22;7654;45.308;-75.096;2022-07-06T00:09:24;17.70;99.90
15107;DHT22;7654;45.308;-75.096;2022-07-06T00:11:54;17.70;99.90
15107;DHT22;7654;45.308;-75.096;2022-07-06T00:14:24;17.70;99.90
15107;DHT22;7654;45.308;-75.096;2022-07-06T00:16:56;17.70;99.90
15107;DHT22;7654;45.308;-75.096;2022-07-06T00:19:27;17.60;99.90
15107;DHT22;7654;45.308;-75.096;2022-07-06T00:21:57;17.70;99.90
15107;DHT22;7654;45.308;-75.096;2022-07-06T00:24:29;17.60;99.90
15107;DHT22;7654;45.308;-75.096;2022-07-06T00:27:02;17.60;99.90
15107;DHT22;7654;45.308;-75.096;2022-07-06T00:29:33;17.60;99.90
15107;DHT22;7654;45.308;-75.096;2022-07-06T00:32:05;17.50;99.90
15107;DHT22;7654;45.308;-75.096;2022-07-06T00:34:36;17.50;99.90
15107;DHT22;7654;45.308;-75.096;2022-07-06T00:37:07;17.50;99.90
15107;DHT22;7654;45.308;-75.096;2022-07-06T00:39:38;17.50;99.90
15107;DHT22;7654;45.308;-75.096;2022-07-06T00:42:09;17.50;99.90
15107;DHT22;7654;45.308;-75.096;2022-07-06T00:44:40;17.50;99.90
15107;DHT22;7654;45.308;-75.096;2022-07-06T00:47:12;17.50;99.90
15107;DHT22;7654;45.308;-75.096;2022-07-06T00:49:44;17.50;99.90
15107;DHT22;7654;45.308;-75.096;2022-07-06T00:52:31;17.40;99.90
15107;DHT22;7654;45.308;-75.096;2022-07-06T00:55:02;17.40;99.90
15107;DHT22;7654;45.308;-75.096;2022-07-06T00:57:33;17.40;99.90
15107;DHT22;7654;45.308;-75.096;2022-07-06T01:00:05;17.40;99.90
15107;DHT22;7654;45.308;-75.096;2022-07-06T01:02:38;17.40;99.90
15107;DHT22;7654;45.308;-75.096;2022-07-06T01:05:10;17.40;99.90
15107;DHT22;7654;45.308;-75.096;2022-07-06T01:07:43;17.40;99.90
15107;DHT22;7654;45.308;-75.096;2022-07-06T01:10:15;17.40;99.90
15107;DHT22;7654;45.308;-75.096;2022-07-06T01:12:47;17.40;99.90
15107;DHT22;7654;45.308;-75.096;2022-07-06T01:15:19;17.40;99.90
15107;DHT22;7654;45.308;-75.096;2022-07-06T01:17:54;17.40;99.90
15107;DHT22;7654;45.308;-75.096;2022-07-06T01:20:29;17.40;99.90
15107;DHT22;7654;45.308;-75.096;2022-07-06T01:23:00;17.40;99.90
15107;DHT22;7654;45.308;-75.096;2022-07-06T01:25:31;17.40;99.90
15107;DHT22;7654;45.308;-75.096;2022-07-06T01:28:02;17.40;99.90
15107;DHT22;7654;45.308;-75.096;2022-07-06T01:30:32;17.30;99.90
15107;DHT22;7654;45.308;-75.096;2022-07-06T01:33:04;17.30;99.90
15107;DHT22;7654;45.308;-75.096;2022-07-06T01:35:36;17.40;99.90
15107;DHT22;7654;45.308;-75.096;2022-07-06T01:38:08;17.40;99.90
15107;DHT22;7654;45.308;-75.096;2022-07-06T01:40:39;17.40;99.90
15107;DHT22;7654;45.308;-75.096;2022-07-06T01:43:09;17.40;99.90
15107;DHT22;7654;45.308;-75.096;2022-07-06T01:45:39;17.40;99.90
15107;DHT22;7654;45.308;-75.096;2022-07-06T01:48:10;17.40;99.90
15107;DHT22;7654;45.308;-75.096;2022-07-06T01:50:43;17.40;99.90
15107;DHT22;7654;45.308;-75.096;2022-07-06T01:53:13;17.50;99.90
15107;DHT22;7654;45.308;-75.096;2022-07-06T01:55:44;17.50;99.90
15107;DHT22;7654;45.308;-75.096;2022-07-06T01:58:14;17.50;99.90
15107;DHT22;7654;45.308;-75.096;2022-07-06T02:00:45;17.50;99.90
15107;DHT22;7654;45.308;-75.096;2022-07-06T02:03:16;17.40;99.90
15107;DHT22;7654;45.308;-75.096;2022-07-06T02:05:49;17.50;99.90
15107;DHT22;7654;45.308;-75.096;2022-07-06T02:08:19;17.50;99.90
15107;DHT22;7654;45.308;-75.096;2022-07-06T02:10:50;17.50;99.90
15107;DHT22;7654;45.308;-75.096;2022-07-06T02:13:21;17.40;99.90
15107;DHT22;7654;45.308;-75.096;2022-07-06T02:15:52;17.40;99.90
15107;DHT22;7654;45.308;-75.096;2022-07-06T02:18:22;17.50;99.90
15107;DHT22;7654;45.308;-75.096;2022-07-06T02:20:56;17.40;99.90
15107;DHT22;7654;45.308;-75.096;2022-07-06T02:23:27;17.40;99.90
15107;DHT22;7654;45.308;-75.096;2022-07-06T02:25:57;17.40;99.90
15107;DHT22;7654;45.308;-75.096;2022-07-06T02:28:27;17.40;99.90
15107;DHT22;7654;45.308;-75.096;2022-07-06T02:30:58;17.40;99.90
15107;DHT22;7654;45.308;-75.096;2022-07-06T02:33:28;17.40;99.90
15107;DHT22;7654;45.308;-75.096;2022-07-06T02:36:00;17.40;99.90
15107;DHT22;7654;45.308;-75.096;2022-07-06T02:38:30;17.40;99.90
15107;DHT22;7654;45.308;-75.096;2022-07-06T02:41:00;17.40;99.90
15107;DHT22;7654;45.308;-75.096;2022-07-06T02:43:30;17.30;99.90
15107;DHT22;7654;45.308;-75.096;2022-07-06T02:46:01;17.30;99.90
15107;DHT22;7654;45.308;-75.096;2022-07-06T02:48:31;17.30;99.90
15107;DHT22;7654;45.308;-75.096;2022-07-06T02:51:04;17.30;99.90
15107;DHT22;7654;45.308;-75.096;2022-07-06T02:53:34;17.30;99.90
15107;DHT22;7654;45.308;-75.096;2022-07-06T02:56:04;17.30;99.90
15107;DHT22;7654;45.308;-75.096;2022-07-06T02:58:35;17.30;99.90
15107;DHT22;7654;45.308;-75.096;2022-07-06T03:01:05;17.30;99.90
15107;DHT22;7654;45.308;-75.096;2022-07-06T03:03:35;17.30;99.90
15107;DHT22;7654;45.308;-75.096;2022-07-06T03:06:08;17.30;99.90
15107;DHT22;7654;45.308;-75.096;2022-07-06T03:08:38;17.30;99.90
15107;DHT22;7654;45.308;-75.096;2022-07-06T03:11:08;17.30;99.90
15107;DHT22;7654;45.308;-75.096;2022-07-06T03:13:39;17.20;99.90
15107;DHT22;7654;45.308;-75.096;2022-07-06T03:16:09;17.20;99.90
15107;DHT22;7654;45.308;-75.096;2022-07-06T03:18:39;17.20;99.90
15107;DHT22;7654;45.308;-75.096;2022-07-06T03:21:11;17.20;99.90
15107;DHT22;7654;45.308;-75.096;2022-07-06T03:23:41;17.20;99.90
15107;DHT22;7654;45.308;-75.096;2022-07-06T03:26:11;17.20;99.90
15107;DHT22;7654;45.308;-75.096;2022-07-06T03:28:41;17.10;99.90
15107;DHT22;7654;45.308;-75.096;2022-07-06T03:31:11;17.20;99.90
15107;DHT22;7654;45.308;-75.096;2022-07-06T03:33:42;17.10;99.90
15107;DHT22;7654;45.308;-75.096;2022-07-06T03:36:14;17.10;99.90
15107;DHT22;7654;45.308;-75.096;2022-07-06T03:38:45;17.20;99.90
15107;DHT22;7654;45.308;-75.096;2022-07-06T03:41:15;17.20;99.90
15107;DHT22;7654;45.308;-75.096;2022-07-06T03:43:46;17.10;99.90
15107;DHT22;7654;45.308;-75.096;2022-07-06T03:46:16;17.20;99.90
15107;DHT22;7654;45.308;-75.096;2022-07-06T03:48:46;17.10;99.90
15107;DHT22;7654;45.308;-75.096;2022-07-06T03:51:18;17.10;99.90
15107;DHT22;7654;45.308;-75.096;2022-07-06T03:53:48;17.10;99.90
15107;DHT22;7654;45.308;-75.096;2022-07-06T03:56:19;17.10;99.90
15107;DHT22;7654;45.308;-75.096;2022-07-06T03:58:59;17.10;99.90
15107;DHT22;7654;45.308;-75.096;2022-07-06T04:01:30;17.10;99.90
15107;DHT22;7654;45.308;-75.096;2022-07-06T04:04:00;17.10;99.90
15107;DHT22;7654;45.308;-75.096;2022-07-06T04:06:32;17.00;99.90
15107;DHT22;7654;45.308;-75.096;2022-07-06T04:09:03;17.00;99.90
15107;DHT22;7654;45.308;-75.096;2022-07-06T04:11:33;17.00;99.90
15107;DHT22;7654;45.308;-75.096;2022-07-06T04:14:04;17.00;99.90
15107;DHT22;7654;45.308;-75.096;2022-07-06T04:16:34;16.90;99.90
15107;DHT22;7654;45.308;-75.096;2022-07-06T04:19:04;16.90;99.90
15107;DHT22;7654;45.308;-75.096;2022-07-06T04:21:36;16.90;99.90
15107;DHT22;7654;45.308;-75.096;2022-07-06T04:24:06;16.80;99.90
15107;DHT22;7654;45.308;-75.096;2022-07-06T04:26:36;16.90;99.90
15107;DHT22;7654;45.308;-75.096;2022-07-06T04:29:07;16.90;99.90
15107;DHT22;7654;45.308;-75.096;2022-07-06T04:31:37;16.90;99.90
15107;DHT22;7654;45.308;-75.096;2022-07-06T04:34:07;16.80;99.90
15107;DHT22;7654;45.308;-75.096;2022-07-06T04:36:39;16.80;99.90
15107;DHT22;7654;45.308;-75.096;2022-07-06T04:39:09;16.90;99.90
15107;DHT22;7654;45.308;-75.096;2022-07-06T04:41:39;16.80;99.90
15107;DHT22;7654;45.308;-75.096;2022-07-06T04:44:09;16.80;99.90
15107;DHT22;7654;45.308;-75.096;2022-07-06T04:46:40;16.80;99.90
15107;DHT22;7654;45.308;-75.096;2022-07-06T04:49:10;16.80;99.90
15107;DHT22;7654;45.308;-75.096;2022-07-06T04:51:41;16.70;99.90
15107;DHT22;7654;45.308;-75.096;2022-07-06T04:54:11;16.70;99.90
15107;DHT22;7654;45.308;-75.096;2022-07-06T04:56:42;16.70;99.90
15107;DHT22;7654;45.308;-75.096;2022-07-06T04:59:12;16.70;99.90
15107;DHT22;7654;45.308;-75.096;2022-07-06T05:01:42;16.60;99.90
15107;DHT22;7654;45.308;-75.096;2022-07-06T05:04:13;16.60;99.90
15107;DHT22;7654;45.308;-75.096;2022-07-06T05:06:48;16.60;99.90
15107;DHT22;7654;45.308;-75.096;2022-07-06T05:09:18;16.60;99.90
15107;DHT22;7654;45.308;-75.096;2022-07-06T05:11:48;16.60;99.90
15107;DHT22;7654;45.308;-75.096;2022-07-06T05:14:18;16.60;99.90
15107;DHT22;7654;45.308;-75.096;2022-07-06T05:16:48;16.60;99.90
15107;DHT22;7654;45.308;-75.096;2022-07-06T05:19:19;16.60;99.90
15107;DHT22;7654;45.308;-75.096;2022-07-06T05:21:50;16.60;99.90
15107;DHT22;7654;45.308;-75.096;2022-07-06T05:24:20;16.60;99.90
15107;DHT22;7654;45.308;-75.096;2022-07-06T05:26:51;16.60;99.90
15107;DHT22;7654;45.308;-75.096;2022-07-06T05:29:21;16.50;99.90
15107;DHT22;7654;45.308;-75.096;2022-07-06T05:31:51;16.50;99.90
15107;DHT22;7654;45.308;-75.096;2022-07-06T05:34:21;16.50;99.90
15107;DHT22;7654;45.308;-75.096;2022-07-06T05:36:53;16.50;99.90
15107;DHT22;7654;45.308;-75.096;2022-07-06T05:39:24;16.50;99.90
15107;DHT22;7654;45.308;-75.096;2022-07-06T05:41:54;16.50;99.90
15107;DHT22;7654;45.308;-75.096;2022-07-06T05:44:24;16.40;99.90
15107;DHT22;7654;45.308;-75.096;2022-07-06T05:46:55;16.40;99.90
15107;DHT22;7654;45.308;-75.096;2022-07-06T05:49:45;16.50;99.90
15107;DHT22;7654;45.308;-75.096;2022-07-06T05:52:33;16.40;99.90
15107;DHT22;7654;45.308;-75.096;2022-07-06T05:55:05;16.40;99.90
15107;DHT22;7654;45.308;-75.096;2022-07-06T05:57:36;16.40;99.90
15107;DHT22;7654;45.308;-75.096;2022-07-06T06:00:07;16.40;99.90
15107;DHT22;7654;45.308;-75.096;2022-07-06T06:02:38;16.40;99.90
15107;DHT22;7654;45.308;-75.096;2022-07-06T06:05:10;16.40;99.90
15107;DHT22;7654;45.308;-75.096;2022-07-06T06:07:43;16.40;99.90
15107;DHT22;7654;45.308;-75.096;2022-07-06T06:10:15;16.40;99.90
15107;DHT22;7654;45.308;-75.096;2022-07-06T06:12:45;16.50;99.90
15107;DHT22;7654;45.308;-75.096;2022-07-06T06:15:16;16.50;99.90
15107;DHT22;7654;45.308;-75.096;2022-07-06T06:17:46;16.50;99.90
15107;DHT22;7654;45.308;-75.096;2022-07-06T06:20:17;16.50;99.90
15107;DHT22;7654;45.308;-75.096;2022-07-06T06:22:50;16.50;99.90
15107;DHT22;7654;45.308;-75.096;2022-07-06T06:25:26;16.50;99.90
15107;DHT22;7654;45.308;-75.096;2022-07-06T06:27:57;16.50;99.90
15107;DHT22;7654;45.308;-75.096;2022-07-06T06:30:27;16.50;99.90
15107;DHT22;7654;45.308;-75.096;2022-07-06T06:33:08;16.50;99.90
15107;DHT22;7654;45.308;-75.096;2022-07-06T06:35:41;16.60;99.90
15107;DHT22;7654;45.308;-75.096;2022-07-06T06:38:14;16.60;99.90
15107;DHT22;7654;45.308;-75.096;2022-07-06T06:40:44;16.50;99.90
15107;DHT22;7654;45.308;-75.096;2022-07-06T06:43:14;16.50;99.90
15107;DHT22;7654;45.308;-75.096;2022-07-06T06:45:44;16.60;99.90
15107;DHT22;7654;45.308;-75.096;2022-07-06T06:48:15;16.60;99.90
15107;DHT22;7654;45.308;-75.096;2022-07-06T06:50:45;16.60;99.90
15107;DHT22;7654;45.308;-75.096;2022-07-06T06:53:17;16.60;99.90
15107;DHT22;7654;45.308;-75.096;2022-07-06T06:55:47;16.60;99.90
15107;DHT22;7654;45.308;-75.096;2022-07-06T06:58:17;16.60;99.90
15107;DHT22;7654;45.308;-75.096;2022-07-06T07:00:48;16.60;99.90
15107;DHT22;7654;45.308;-75.096;2022-07-06T07:03:19;16.60;99.90
15107;DHT22;7654;45.308;-75.096;2022-07-06T07:05:49;16.60;99.90
15107;DHT22;7654;45.308;-75.096;2022-07-06T07:08:23;16.60;99.90
15107;DHT22;7654;45.308;-75.096;2022-07-06T07:10:54;16.60;99.90
15107;DHT22;7654;45.308;-75.096;2022-07-06T07:13:25;16.60;99.90
15107;DHT22;7654;45.308;-75.096;2022-07-06T07:15:56;16.60;99.90
15107;DHT22;7654;45.308;-75.096;2022-07-06T07:18:26;16.60;99.90
15107;DHT22;7654;45.308;-75.096;2022-07-06T07:20:58;16.60;99.90
15107;DHT22;7654;45.308;-75.096;2022-07-06T07:23:30;16.60;99.90
15107;DHT22;7654;45.308;-75.096;2022-07-06T07:26:00;16.60;99.90
15107;DHT22;7654;45.308;-75.096;2022-07-06T07:28:30;16.60;99.90
15107;DHT22;7654;45.308;-75.096;2022-07-06T07:31:00;16.60;99.90
15107;DHT22;7654;45.308;-75.096;2022-07-06T07:33:31;16.60;99.90
15107;DHT22;7654;45.308;-75.096;2022-07-06T07:36:01;16.60;99.90
15107;DHT22;7654;45.308;-75.096;2022-07-06T07:38:33;16.50;99.90
15107;DHT22;7654;45.308;-75.096;2022-07-06T07:41:03;16.50;99.90
15107;DHT22;7654;45.308;-75.096;2022-07-06T07:43:34;16.50;99.90
15107;DHT22;7654;45.308;-75.096;2022-07-06T07:46:04;16.50;99.90
15107;DHT22;7654;45.308;-75.096;2022-07-06T07:48:34;16.50;99.90
15107;DHT22;7654;45.308;-75.096;2022-07-06T07:51:04;16.40;99.90
15107;DHT22;7654;45.308;-75.096;2022-07-06T07:53:36;16.40;99.90
15107;DHT22;7654;45.308;-75.096;2022-07-06T07:56:06;16.40;99.90
15107;DHT22;7654;45.308;-75.096;2022-07-06T07:58:36;16.40;99.90
15107;DHT22;7654;45.308;-75.096;2022-07-06T08:01:06;16.40;99.90
15107;DHT22;7654;45.308;-75.096;2022-07-06T08:03:37;16.40;99.90
15107;DHT22;7654;45.308;-75.096;2022-07-06T08:06:07;16.40;99.90
15107;DHT22;7654;45.308;-75.096;2022-07-06T08:08:39;16.40;99.90
15107;DHT22;7654;45.308;-75.096;2022-07-06T08:11:09;16.40;99.90
15107;DHT22;7654;45.308;-75.096;2022-07-06T08:13:45;16.30;99.90
15107;DHT22;7654;45.308;-75.096;2022-07-06T08:16:15;16.30;99.90
15107;DHT22;7654;45.308;-75.096;2022-07-06T08:18:46;16.30;99.90
15107;DHT22;7654;45.308;-75.096;2022-07-06T08:21:16;16.30;99.90
15107;DHT22;7654;45.308;-75.096;2022-07-06T08:23:55;16.30;99.90
15107;DHT22;7654;45.308;-75.096;2022-07-06T08:26:28;16.30;99.90
15107;DHT22;7654;45.308;-75.096;2022-07-06T08:28:58;16.30;99.90
15107;DHT22;7654;45.308;-75.096;2022-07-06T08:31:29;16.20;99.90
15107;DHT22;7654;45.308;-75.096;2022-07-06T08:34:19;16.30;99.90
15107;DHT22;7654;45.308;-75.096;2022-07-06T08:36:49;16.20;99.90
15107;DHT22;7654;45.308;-75.096;2022-07-06T08:39:21;16.20;99.90
15107;DHT22;7654;45.308;-75.096;2022-07-06T08:41:51;16.20;99.90
15107;DHT22;7654;45.308;-75.096;2022-07-06T08:44:21;16.20;99.90
15107;DHT22;7654;45.308;-75.096;2022-07-06T08:46:55;16.30;99.90
15107;DHT22;7654;45.308;-75.096;2022-07-06T08:49:26;16.30;99.90
15107;DHT22;7654;45.308;-75.096;2022-07-06T08:51:57;16.20;99.90
15107;DHT22;7654;45.308;-75.096;2022-07-06T08:54:29;16.20;99.90
15107;DHT22;7654;45.308;-75.096;2022-07-06T08:56:59;16.20;99.90
15107;DHT22;7654;45.308;-75.096;2022-07-06T08:59:32;16.20;99.90
15107;DHT22;7654;45.308;-75.096;2022-07-06T09:02:04;16.20;99.90
15107;DHT22;7654;45.308;-75.096;2022-07-06T09:04:35;16.20;99.90
15107;DHT22;7654;45.308;-75.096;2022-07-06T09:07:06;16.20;99.90
15107;DHT22;7654;45.308;-75.096;2022-07-06T09:09:40;16.20;99.90
15107;DHT22;7654;45.308;-75.096;2022-07-06T09:12:13;16.20;99.90
15107;DHT22;7654;45.308;-75.096;2022-07-06T09:14:43;16.20;99.90
15107;DHT22;7654;45.308;-75.096;2022-07-06T09:17:13;16.20;99.90
15107;DHT22;7654;45.308;-75.096;2022-07-06T09:19:45;16.20;99.90
15107;DHT22;7654;45.308;-75.096;2022-07-06T09:22:26;16.20;99.90
15107;DHT22;7654;45.308;-75.096;2022-07-06T09:25:04;16.20;99.90
15107;DHT22;7654;45.308;-75.096;2022-07-06T09:27:38;16.20;99.90
15107;DHT22;7654;45.308;-75.096;2022-07-06T09:30:09;16.30;99.90
15107;DHT22;7654;45.308;-75.096;2022-07-06T09:32:40;16.30;99.90
15107;DHT22;7654;45.308;-75.096;2022-07-06T09:35:21;16.20;99.90
15107;DHT22;7654;45.308;-75.096;2022-07-06T09:38:00;16.30;99.90
15107;DHT22;7654;45.308;-75.096;2022-07-06T09:40:33;16.30;99.90
15107;DHT22;7654;45.308;-75.096;2022-07-06T09:43:12;16.30;99.90
15107;DHT22;7654;45.308;-75.096;2022-07-06T09:45:44;16.20;99.90
15107;DHT22;7654;45.308;-75.096;2022-07-06T09:48:16;16.20;99.90
15107;DHT22;7654;45.308;-75.096;2022-07-06T09:50:52;16.20;99.90
15107;DHT22;7654;45.308;-75.096;2022-07-06T09:53:24;16.10;99.90
15107;DHT22;7654;45.308;-75.096;2022-07-06T09:55:57;16.10;99.90
15107;DHT22;7654;45.308;-75.096;2022-07-06T09:58:28;16.10;99.90
15107;DHT22;7654;45.308;-75.096;2022-07-06T10:01:26;16.10;99.90
15107;DHT22;7654;45.308;-75.096;2022-07-06T10:03:57;16.10;99.90
15107;DHT22;7654;45.308;-75.096;2022-07-06T10:06:28;16.10;99.90
15107;DHT22;7654;45.308;-75.096;2022-07-06T10:08:58;16.10;99.90
15107;DHT22;7654;45.308;-75.096;2022-07-06T10:11:31;16.10;99.90
15107;DHT22;7654;45.308;-75.096;2022-07-06T10:14:05;16.10;99.90
15107;DHT22;7654;45.308;-75.096;2022-07-06T10:16:37;16.10;99.90
15107;DHT22;7654;45.308;-75.096;2022-07-06T10:19:08;16.10;99.90
15107;DHT22;7654;45.308;-75.096;2022-07-06T10:21:40;16.20;99.90
15107;DHT22;7654;45.308;-75.096;2022-07-06T10:24:11;16.20;99.90
15107;DHT22;7654;45.308;-75.096;2022-07-06T10:26:43;16.20;99.90
15107;DHT22;7654;45.308;-75.096;2022-07-06T10:29:13;16.20;99.90
15107;DHT22;7654;45.308;-75.096;2022-07-06T10:31:45;16.30;99.90
15107;DHT22;7654;45.308;-75.096;2022-07-06T10:34:17;16.30;99.90
15107;DHT22;7654;45.308;-75.096;2022-07-06T10:36:50;16.30;99.90
15107;DHT22;7654;45.308;-75.096;2022-07-06T10:39:36;16.40;99.90
15107;DHT22;7654;45.308;-75.096;2022-07-06T10:42:44;16.40;99.90
15107;DHT22;7654;45.308;-75.096;2022-07-06T10:45:20;16.40;99.90
15107;DHT22;7654;45.308;-75.096;2022-07-06T10:48:17;16.50;99.90
15107;DHT22;7654;45.308;-75.096;2022-07-06T10:50:51;16.50;99.90
15107;DHT22;7654;45.308;-75.096;2022-07-06T10:53:23;16.60;99.90
15107;DHT22;7654;45.308;-75.096;2022-07-06T10:55:54;16.60;99.90
15107;DHT22;7654;45.308;-75.096;2022-07-06T10:58:41;16.70;99.90
15107;DHT22;7654;45.308;-75.096;2022-07-06T11:01:12;16.70;99.90
15107;DHT22;7654;45.308;-75.096;2022-07-06T11:03:43;16.80;99.90
15107;DHT22;7654;45.308;-75.096;2022-07-06T11:06:15;16.80;99.90
15107;DHT22;7654;45.308;-75.096;2022-07-06T11:08:56;16.90;99.90
15107;DHT22;7654;45.308;-75.096;2022-07-06T11:11:37;17.00;99.90
15107;DHT22;7654;45.308;-75.096;2022-07-06T11:14:13;17.00;99.90
15107;DHT22;7654;45.308;-75.096;2022-07-06T11:17:01;17.10;99.90
15107;DHT22;7654;45.308;-75.096;2022-07-06T11:19:32;17.20;99.90
15107;DHT22;7654;45.308;-75.096;2022-07-06T11:22:06;17.20;99.90
15107;DHT22;7654;45.308;-75.096;2022-07-06T11:24:39;17.30;99.90
15107;DHT22;7654;45.308;-75.096;2022-07-06T11:27:09;17.30;99.90
15107;DHT22;7654;45.308;-75.096;2022-07-06T11:29:41;17.30;99.90
15107;DHT22;7654;45.308;-75.096;2022-07-06T11:32:13;17.40;99.90
15107;DHT22;7654;45.308;-75.096;2022-07-06T11:34:44;17.50;99.90
15107;DHT22;7654;45.308;-75.096;2022-07-06T11:37:15;17.60;99.90
15107;DHT22;7654;45.308;-75.096;2022-07-06T11:39:46;17.60;99.90
15107;DHT22;7654;45.308;-75.096;2022-07-06T11:42:18;17.60;99.90
15107;DHT22;7654;45.308;-75.096;2022-07-06T11:44:50;17.60;99.90
15107;DHT22;7654;45.308;-75.096;2022-07-06T11:47:20;17.60;99.90
15107;DHT22;7654;45.308;-75.096;2022-07-06T11:49:51;17.70;99.90
15107;DHT22;7654;45.308;-75.096;2022-07-06T11:52:21;18.00;99.90
15107;DHT22;7654;45.308;-75.096;2022-07-06T11:54:57;18.00;99.90
15107;DHT22;7654;45.308;-75.096;2022-07-06T11:57:32;18.20;99.90
15107;DHT22;7654;45.308;-75.096;2022-07-06T12:00:04;18.20;99.90
15107;DHT22;7654;45.308;-75.096;2022-07-06T12:02:35;18.20;99.90
15107;DHT22;7654;45.308;-75.096;2022-07-06T12:05:07;18.10;99.90
15107;DHT22;7654;45.308;-75.096;2022-07-06T12:07:38;18.10;99.90
15107;DHT22;7654;45.308;-75.096;2022-07-06T12:10:09;18.10;99.90
15107;DHT22;7654;45.308;-75.096;2022-07-06T12:12:39;18.20;99.90
15107;DHT22;7654;45.308;-75.096;2022-07-06T12:15:11;18.20;99.90
15107;DHT22;7654;45.308;-75.096;2022-07-06T12:17:47;18.30;99.90
15107;DHT22;7654;45.308;-75.096;2022-07-06T12:20:17;18.30;99.90
15107;DHT22;7654;45.308;-75.096;2022-07-06T12:22:47;18.30;99.90
15107;DHT22;7654;45.308;-75.096;2022-07-06T12:25:30;18.30;99.90
15107;DHT22;7654;45.308;-75.096;2022-07-06T12:28:00;18.30;99.90
15107;DHT22;7654;45.308;-75.096;2022-07-06T12:30:32;18.30;99.90
15107;DHT22;7654;45.308;-75.096;2022-07-06T12:33:13;18.20;99.90
15107;DHT22;7654;45.308;-75.096;2022-07-06T12:35:44;18.30;99.90
15107;DHT22;7654;45.308;-75.096;2022-07-06T12:38:22;18.40;99.90
15107;DHT22;7654;45.308;-75.096;2022-07-06T12:40:52;18.50;99.90
15107;DHT22;7654;45.308;-75.096;2022-07-06T12:43:39;18.80;99.90
15107;DHT22;7654;45.308;-75.096;2022-07-06T12:46:31;18.90;99.90
15107;DHT22;7654;45.308;-75.096;2022-07-06T12:49:03;18.90;99.90
15107;DHT22;7654;45.308;-75.096;2022-07-06T12:51:50;18.90;99.90
15107;DHT22;7654;45.308;-75.096;2022-07-06T12:54:21;18.90;99.90
15107;DHT22;7654;45.308;-75.096;2022-07-06T12:57:05;18.90;99.90
15107;DHT22;7654;45.308;-75.096;2022-07-06T12:59:37;19.00;99.90
15107;DHT22;7654;45.308;-75.096;2022-07-06T13:02:16;19.00;99.90
15107;DHT22;7654;45.308;-75.096;2022-07-06T13:04:59;19.00;99.90
15107;DHT22;7654;45.308;-75.096;2022-07-06T13:07:31;19.10;99.90
15107;DHT22;7654;45.308;-75.096;2022-07-06T13:10:05;19.20;99.90
15107;DHT22;7654;45.308;-75.096;2022-07-06T13:12:36;19.30;99.90
15107;DHT22;7654;45.308;-75.096;2022-07-06T13:15:08;19.50;99.90
15107;DHT22;7654;45.308;-75.096;2022-07-06T13:17:40;19.80;99.90
15107;DHT22;7654;45.308;-75.096;2022-07-06T13:20:11;19.90;99.90
15107;DHT22;7654;45.308;-75.096;2022-07-06T13:22:42;19.90;99.90
15107;DHT22;7654;45.308;-75.096;2022-07-06T13:25:12;19.70;99.90
15107;DHT22;7654;45.308;-75.096;2022-07-06T13:27:42;19.70;99.90
15107;DHT22;7654;45.308;-75.096;2022-07-06T13:30:13;19.80;99.90
15107;DHT22;7654;45.308;-75.096;2022-07-06T13:32:45;19.80;99.90
15107;DHT22;7654;45.308;-75.096;2022-07-06T13:35:15;19.80;99.90
15107;DHT22;7654;45.308;-75.096;2022-07-06T13:37:46;19.90;99.90
15107;DHT22;7654;45.308;-75.096;2022-07-06T13:40:18;19.80;99.90
15107;DHT22;7654;45.308;-75.096;2022-07-06T13:42:49;20.00;99.90
15107;DHT22;7654;45.308;-75.096;2022-07-06T13:45:22;20.10;99.90
15107;DHT22;7654;45.308;-75.096;2022-07-06T13:47:54;20.20;99.90
15107;DHT22;7654;45.308;-75.096;2022-07-06T13:50:24;20.20;99.90
15107;DHT22;7654;45.308;-75.096;2022-07-06T13:52:56;20.20;99.90
15107;DHT22;7654;45.308;-75.096;2022-07-06T13:55:26;20.30;99.90
15107;DHT22;7654;45.308;-75.096;2022-07-06T13:57:56;20.30;99.90
15107;DHT22;7654;45.308;-75.096;2022-07-06T14:00:26;20.20;99.90
15107;DHT22;7654;45.308;-75.096;2022-07-06T14:02:57;20.10;99.90
15107;DHT22;7654;45.308;-75.096;2022-07-06T14:05:28;20.00;99.90
15107;DHT22;7654;45.308;-75.096;2022-07-06T14:07:58;20.30;99.90
15107;DHT22;7654;45.308;-75.096;2022-07-06T14:10:28;20.50;99.90
15107;DHT22;7654;45.308;-75.096;2022-07-06T14:12:57;20.40;99.90
15107;DHT22;7654;45.308;-75.096;2022-07-06T14:15:27;20.30;99.90
15107;DHT22;7654;45.308;-75.096;2022-07-06T14:17:58;20.40;99.90
15107;DHT22;7654;45.308;-75.096;2022-07-06T14:20:28;20.40;99.90
15107;DHT22;7654;45.308;-75.096;2022-07-06T14:22:57;20.40;99.90
15107;DHT22;7654;45.308;-75.096;2022-07-06T14:25:27;20.40;99.90
15107;DHT22;7654;45.308;-75.096;2022-07-06T14:27:57;20.40;99.90
15107;DHT22;7654;45.308;-75.096;2022-07-06T14:30:26;20.70;99.90
15107;DHT22;7654;45.308;-75.096;2022-07-06T14:32:58;20.70;99.90
15107;DHT22;7654;45.308;-75.096;2022-07-06T14:35:27;20.60;99.90
15107;DHT22;7654;45.308;-75.096;2022-07-06T14:37:57;20.70;99.90
15107;DHT22;7654;45.308;-75.096;2022-07-06T14:40:27;20.70;99.90
15107;DHT22;7654;45.308;-75.096;2022-07-06T14:42:57;20.60;99.90
15107;DHT22;7654;45.308;-75.096;2022-07-06T14:45:26;20.80;99.90
15107;DHT22;7654;45.308;-75.096;2022-07-06T14:47:58;21.00;99.90
15107;DHT22;7654;45.308;-75.096;2022-07-06T14:50:27;21.30;99.90
15107;DHT22;7654;45.308;-75.096;2022-07-06T14:52:57;21.50;99.90
15107;DHT22;7654;45.308;-75.096;2022-07-06T14:55:26;21.60;99.90
15107;DHT22;7654;45.308;-75.096;2022-07-06T14:57:56;22.10;99.90
15107;DHT22;7654;45.308;-75.096;2022-07-06T15:00:26;22.20;99.90
15107;DHT22;7654;45.308;-75.096;2022-07-06T15:02:55;22.10;99.90
15107;DHT22;7654;45.308;-75.096;2022-07-06T15:05:27;22.20;99.90
15107;DHT22;7654;45.308;-75.096;2022-07-06T15:07:56;22.20;99.90
15107;DHT22;7654;45.308;-75.096;2022-07-06T15:10:26;21.90;99.90
15107;DHT22;7654;45.308;-75.096;2022-07-06T15:12:56;21.60;99.90
15107;DHT22;7654;45.308;-75.096;2022-07-06T15:15:25;21.50;99.90
15107;DHT22;7654;45.308;-75.096;2022-07-06T15:18:15;21.60;99.90
15107;DHT22;7654;45.308;-75.096;2022-07-06T15:20:47;21.90;99.90
15107;DHT22;7654;45.308;-75.096;2022-07-06T15:23:16;22.00;99.90
15107;DHT22;7654;45.308;-75.096;2022-07-06T15:25:46;22.20;99.90
15107;DHT22;7654;45.308;-75.096;2022-07-06T15:28:22;22.20;99.90
15107;DHT22;7654;45.308;-75.096;2022-07-06T15:30:52;22.30;99.90
15107;DHT22;7654;45.308;-75.096;2022-07-06T15:33:21;22.40;99.90
15107;DHT22;7654;45.308;-75.096;2022-07-06T15:35:53;22.50;99.90
15107;DHT22;7654;45.308;-75.096;2022-07-06T15:38:22;22.30;99.90
15107;DHT22;7654;45.308;-75.096;2022-07-06T15:43:53;21.60;99.90
15107;DHT22;7654;45.308;-75.096;2022-07-06T15:46:23;21.40;99.90
15107;DHT22;7654;45.308;-75.096;2022-07-06T15:48:53;21.40;99.90